createdAt,value
2019-04-05T00:00:02.978Z,2.5
2019-04-05T00:01:02.830Z,6.1
2019-04-05T00:02:03.629Z,6.1
2019-04-05T00:03:03.641Z,6.1
2019-04-05T00:04:02.773Z,6.1
2019-04-05T00:05:03.627Z,6.1
2019-04-05T00:06:03.696Z,6.1
2019-04-05T00:07:03.401Z,6.1
2019-04-05T00:08:03.624Z,6.1
2019-04-05T00:09:03.479Z,6.1
2019-04-05T00:10:03.345Z,7.2
2019-04-05T00:11:03.048Z,8.6
2019-04-05T00:12:02.845Z,5
2019-04-05T00:13:02.959Z,5
2019-04-05T00:14:03.187Z,8.6
2019-04-05T00:15:16.566Z,7.2
2019-04-05T00:16:03.286Z,9.7
2019-04-05T00:17:03.180Z,8.6
2019-04-05T00:18:03.305Z,8.6
2019-04-05T00:19:03.293Z,8.6
2019-04-05T00:20:03.251Z,8.6
2019-04-05T00:21:03.563Z,9.7
2019-04-05T00:22:03.325Z,9.7
2019-04-05T00:23:03.405Z,8.6
2019-04-05T00:24:03.139Z,9.7
2019-04-05T00:25:03.449Z,9.7
2019-04-05T00:26:03.617Z,11.2
2019-04-05T00:27:03.333Z,9.7
2019-04-05T00:28:03.261Z,9.7
2019-04-05T00:29:03.094Z,11.2
2019-04-05T00:30:03.574Z,9.7
2019-04-05T00:31:03.816Z,9.7
2019-04-05T00:32:03.534Z,7.2
2019-04-05T00:33:03.414Z,8.6
2019-04-05T00:34:03.163Z,9.7
2019-04-05T00:35:03.285Z,9.7
2019-04-05T00:36:03.502Z,7.2
2019-04-05T00:37:03.394Z,8.6
2019-04-05T00:38:02.973Z,12.2
2019-04-05T00:39:03.193Z,3.6
2019-04-05T00:40:03.348Z,8.6
2019-04-05T00:41:03.441Z,9.7
2019-04-05T00:42:03.735Z,8.6
2019-04-05T00:43:02.927Z,8.6
2019-04-05T00:44:03.250Z,6.1
2019-04-05T00:45:03.862Z,7.2
2019-04-05T00:46:03.494Z,7.2
2019-04-05T00:47:03.836Z,7.2
2019-04-05T00:48:03.023Z,6.1
2019-04-05T00:49:03.465Z,8.6
2019-04-05T00:50:03.310Z,9.7
2019-04-05T00:51:03.646Z,8.6
2019-04-05T00:52:02.977Z,8.6
2019-04-05T00:53:03.049Z,5
2019-04-05T00:54:03.644Z,6.1
2019-04-05T00:55:03.156Z,6.1
2019-04-05T00:56:03.267Z,2.5
2019-04-05T00:57:02.914Z,7.2
2019-04-05T00:58:03.030Z,8.6
2019-04-05T00:59:03.161Z,9.7
2019-04-05T01:00:03.463Z,8.6
2019-04-05T01:01:03.426Z,9.7
2019-04-05T01:02:03.260Z,7.2
2019-04-05T01:03:03.279Z,9.7
2019-04-05T01:04:03.694Z,8.6
2019-04-05T01:05:03.670Z,7.2
2019-04-05T01:06:03.314Z,7.2
2019-04-05T01:07:03.157Z,9.7
2019-04-05T01:08:03.453Z,8.6
2019-04-05T01:09:03.277Z,7.2
2019-04-05T01:10:03.536Z,7.2
2019-04-05T01:11:03.769Z,9.7
2019-04-05T01:12:03.293Z,8.6
2019-04-05T01:13:03.759Z,8.6
2019-04-05T01:14:03.391Z,8.6
2019-04-05T01:15:03.750Z,7.2
2019-04-05T01:16:03.356Z,8.6
2019-04-05T01:17:03.691Z,11.2
2019-04-05T01:18:03.310Z,8.6
2019-04-05T01:19:04.549Z,7.2
2019-04-05T01:20:03.483Z,8.6
2019-04-05T01:21:03.286Z,11.2
2019-04-05T01:22:03.652Z,7.2
2019-04-05T01:23:03.663Z,11.2
2019-04-05T01:24:03.149Z,9.7
2019-04-05T01:25:03.093Z,7.2
2019-04-05T01:26:03.878Z,6.1
2019-04-05T01:27:03.511Z,9.7
2019-04-05T01:28:03.171Z,9.7
2019-04-05T01:29:03.739Z,8.6
2019-04-05T01:30:03.803Z,7.2
2019-04-05T01:31:03.377Z,8.6
2019-04-05T01:32:03.421Z,8.6
2019-04-05T01:33:03.396Z,6.1
2019-04-05T01:34:06.144Z,6.1
2019-04-05T01:35:03.564Z,7.2
2019-04-05T01:36:03.660Z,7.2
2019-04-05T01:37:03.602Z,6.1
2019-04-05T01:38:03.763Z,8.6
2019-04-05T01:39:03.374Z,6.1
2019-04-05T01:40:03.877Z,6.1
2019-04-05T01:41:03.766Z,6.1
2019-04-05T01:42:03.372Z,6.1
2019-04-05T01:43:03.391Z,8.6
2019-04-05T01:44:03.134Z,7.2
2019-04-05T01:45:03.838Z,6.1
2019-04-05T01:46:02.997Z,6.1
2019-04-05T01:47:03.613Z,7.2
2019-04-05T01:48:03.399Z,7.2
2019-04-05T01:49:03.262Z,7.2
2019-04-05T01:50:03.718Z,7.2
2019-04-05T01:51:03.718Z,6.1
2019-04-05T01:52:03.152Z,5
2019-04-05T01:53:03.903Z,5
2019-04-05T01:54:03.141Z,5
2019-04-05T01:55:03.281Z,6.1
2019-04-05T01:56:03.699Z,8.6
2019-04-05T01:57:03.252Z,8.6
2019-04-05T01:58:01.859Z,8.6
2019-04-05T01:59:03.270Z,8.6
2019-04-05T02:00:03.362Z,8.6
2019-04-05T02:01:03.709Z,9.7
2019-04-05T02:02:03.061Z,9.7
2019-04-05T02:03:03.432Z,9.7
2019-04-05T02:04:03.125Z,9.7
2019-04-05T02:05:03.436Z,9.7
2019-04-05T02:06:03.163Z,9.7
2019-04-05T02:07:03.103Z,9.7
2019-04-05T02:08:03.190Z,9.7
2019-04-05T02:09:03.540Z,7.2
2019-04-05T02:10:03.016Z,7.2
2019-04-05T02:11:02.930Z,6.1
2019-04-05T02:12:03.041Z,6.1
2019-04-05T02:13:02.865Z,6.1
2019-04-05T02:14:03.578Z,6.1
2019-04-05T02:15:03.929Z,6.1
2019-04-05T02:16:07.340Z,5
2019-04-05T02:17:02.997Z,5
2019-04-05T02:18:03.489Z,5
2019-04-05T02:19:02.927Z,7.2
2019-04-05T02:20:03.079Z,7.2
2019-04-05T02:21:03.056Z,9.7
2019-04-05T02:22:03.837Z,8.6
2019-04-05T02:23:02.978Z,8.6
2019-04-05T02:24:03.448Z,9.7
2019-04-05T02:25:03.166Z,6.1
2019-04-05T02:26:03.797Z,6.1
2019-04-05T02:27:02.907Z,5
2019-04-05T02:28:03.999Z,5
2019-04-05T02:29:02.877Z,3.6
2019-04-05T02:30:03.377Z,3.6
2019-04-05T02:31:02.930Z,6.1
2019-04-05T02:32:03.743Z,7.2
2019-04-05T02:33:03.708Z,6.1
2019-04-05T02:34:03.153Z,6.1
2019-04-05T02:35:03.349Z,5
2019-04-05T02:36:03.785Z,6.1
2019-04-05T02:37:03.442Z,6.1
2019-04-05T02:38:03.515Z,7.2
2019-04-05T02:39:03.395Z,6.1
2019-04-05T02:40:02.921Z,6.1
2019-04-05T02:41:03.394Z,7.2
2019-04-05T02:42:03.746Z,6.1
2019-04-05T02:43:03.706Z,6.1
2019-04-05T02:44:03.160Z,5
2019-04-05T02:45:03.921Z,5
2019-04-05T02:46:03.104Z,5
2019-04-05T02:47:03.642Z,6.1
2019-04-05T02:48:02.764Z,7.2
2019-04-05T02:49:03.163Z,6.1
2019-04-05T02:50:03.229Z,5
2019-04-05T02:51:03.218Z,6.1
2019-04-05T02:52:03.703Z,6.1
2019-04-05T02:53:02.719Z,5
2019-04-05T02:54:03.261Z,5
2019-04-05T02:55:03.042Z,6.1
2019-04-05T02:56:04.003Z,6.1
2019-04-05T02:57:03.660Z,5
2019-04-05T02:58:03.802Z,5
2019-04-05T02:59:03.384Z,5
2019-04-05T03:00:03.152Z,5
2019-04-05T03:01:03.838Z,5
2019-04-05T03:02:03.724Z,6.1
2019-04-05T03:03:03.596Z,5
2019-04-05T03:04:03.713Z,5
2019-04-05T03:05:03.588Z,5
2019-04-05T03:06:03.297Z,5
2019-04-05T03:07:03.559Z,6.1
2019-04-05T03:08:03.441Z,7.2
2019-04-05T03:09:03.438Z,6.1
2019-04-05T03:10:03.613Z,6.1
2019-04-05T03:11:03.889Z,6.1
2019-04-05T03:12:03.267Z,5
2019-04-05T03:13:03.833Z,5
2019-04-05T03:14:03.584Z,6.1
2019-04-05T03:15:03.787Z,6.1
2019-04-05T03:16:03.593Z,6.1
2019-04-05T03:17:03.467Z,6.1
2019-04-05T03:18:03.349Z,7.2
2019-04-05T03:19:03.832Z,6.1
2019-04-05T03:20:03.673Z,6.1
2019-04-05T03:21:03.582Z,5
2019-04-05T03:22:03.656Z,5
2019-04-05T03:23:03.299Z,6.1
2019-04-05T03:24:02.912Z,5
2019-04-05T03:25:03.166Z,5
2019-04-05T03:26:03.505Z,5
2019-04-05T03:27:03.598Z,5
2019-04-05T03:28:03.644Z,6.1
2019-04-05T03:29:03.332Z,5
2019-04-05T03:30:03.492Z,3.6
2019-04-05T03:31:03.317Z,3.6
2019-04-05T03:32:03.308Z,3.6
2019-04-05T03:33:03.447Z,3.6
2019-04-05T03:34:03.219Z,3.6
2019-04-05T03:35:03.232Z,2.5
2019-04-05T03:36:03.238Z,2.5
2019-04-05T03:37:03.162Z,1.1
2019-04-05T03:38:03.093Z,2.5
2019-04-05T03:39:02.905Z,2.5
2019-04-05T03:40:02.944Z,3.6
2019-04-05T03:41:03.247Z,5
2019-04-05T03:42:02.764Z,5
2019-04-05T03:43:02.871Z,5
2019-04-05T03:44:02.978Z,5
2019-04-05T03:45:03.287Z,3.6
2019-04-05T03:46:02.842Z,3.6
2019-04-05T03:47:03.834Z,3.6
2019-04-05T03:48:03.020Z,3.6
2019-04-05T03:49:02.951Z,2.5
2019-04-05T03:50:03.298Z,3.6
2019-04-05T03:51:03.485Z,5
2019-04-05T03:52:03.633Z,5
2019-04-05T03:53:03.487Z,5
2019-04-05T03:54:03.298Z,5
2019-04-05T03:55:03.471Z,3.6
2019-04-05T03:56:03.014Z,2.5
2019-04-05T03:57:03.731Z,2.5
2019-04-05T03:58:03.613Z,2.5
2019-04-05T03:59:03.541Z,2.5
2019-04-05T04:00:03.821Z,2.5
2019-04-05T04:01:03.310Z,2.5
2019-04-05T04:02:03.323Z,2.5
2019-04-05T04:03:03.807Z,2.5
2019-04-05T04:04:02.984Z,2.5
2019-04-05T04:05:03.178Z,2.5
2019-04-05T04:06:03.344Z,2.5
2019-04-05T04:07:03.354Z,2.5
2019-04-05T04:08:03.430Z,2.5
2019-04-05T04:09:03.680Z,2.5
2019-04-05T04:10:03.409Z,2.5
2019-04-05T04:11:03.943Z,0
2019-04-05T04:12:03.669Z,1.1
2019-04-05T04:13:03.675Z,2.5
2019-04-05T04:14:03.067Z,2.5
2019-04-05T04:15:03.247Z,3.6
2019-04-05T04:16:03.308Z,2.5
2019-04-05T04:17:14.012Z,2.5
2019-04-05T04:18:03.420Z,2.5
2019-04-05T04:19:03.449Z,3.6
2019-04-05T04:20:03.395Z,3.6
2019-04-05T04:21:03.292Z,2.5
2019-04-05T04:22:03.313Z,3.6
2019-04-05T04:23:02.890Z,5
2019-04-05T04:24:03.315Z,3.6
2019-04-05T04:25:03.378Z,3.6
2019-04-05T04:26:03.000Z,3.6
2019-04-05T04:27:03.015Z,5
2019-04-05T04:28:03.236Z,5
2019-04-05T04:29:03.123Z,5
2019-04-05T04:30:03.254Z,3.6
2019-04-05T04:31:03.331Z,3.6
2019-04-05T04:32:03.179Z,5
2019-04-05T04:33:03.286Z,3.6
2019-04-05T04:34:03.029Z,3.6
2019-04-05T04:35:03.369Z,3.6
2019-04-05T04:36:03.192Z,3.6
2019-04-05T04:37:03.269Z,2.5
2019-04-05T04:38:02.931Z,2.5
2019-04-05T04:39:02.849Z,2.5
2019-04-05T04:40:03.050Z,2.5
2019-04-05T04:41:03.010Z,2.5
2019-04-05T04:42:02.849Z,1.1
2019-04-05T04:43:02.962Z,2.5
2019-04-05T04:44:02.991Z,2.5
2019-04-05T04:45:13.384Z,3.6
2019-04-05T04:46:02.965Z,3.6
2019-04-05T04:47:03.750Z,1.1
2019-04-05T04:48:02.755Z,2.5
2019-04-05T04:49:02.967Z,2.5
2019-04-05T04:50:03.434Z,2.5
2019-04-05T04:51:03.249Z,0
2019-04-05T04:52:02.813Z,1.1
2019-04-05T04:53:02.932Z,1.1
2019-04-05T04:54:03.826Z,1.1
2019-04-05T04:55:02.832Z,1.1
2019-04-05T04:56:03.556Z,1.1
2019-04-05T04:57:03.652Z,1.1
2019-04-05T04:58:03.732Z,3.6
2019-04-05T04:59:03.589Z,3.6
2019-04-05T05:00:03.735Z,3.6
2019-04-05T05:01:03.732Z,2.5
2019-04-05T05:02:03.562Z,2.5
2019-04-05T05:03:03.567Z,2.5
2019-04-05T05:04:03.706Z,3.6
2019-04-05T05:05:03.534Z,3.6
2019-04-05T05:06:03.697Z,2.5
2019-04-05T05:07:03.398Z,2.5
2019-04-05T05:08:03.765Z,2.5
2019-04-05T05:09:03.152Z,2.5
2019-04-05T05:10:04.016Z,2.5
2019-04-05T05:11:15.489Z,2.5
2019-04-05T05:12:03.616Z,2.5
2019-04-05T05:13:03.676Z,2.5
2019-04-05T05:14:03.217Z,1.1
2019-04-05T05:15:03.681Z,1.1
2019-04-05T05:16:03.043Z,1.1
2019-04-05T05:17:03.367Z,2.5
2019-04-05T05:18:03.571Z,2.5
2019-04-05T05:19:03.178Z,1.1
2019-04-05T05:20:03.161Z,1.1
2019-04-05T05:21:03.175Z,2.5
2019-04-05T05:22:03.114Z,2.5
2019-04-05T05:23:03.109Z,2.5
2019-04-05T05:24:03.072Z,2.5
2019-04-05T05:25:03.167Z,2.5
2019-04-05T05:26:02.964Z,2.5
2019-04-05T05:27:02.960Z,2.5
2019-04-05T05:28:02.927Z,2.5
2019-04-05T05:29:02.867Z,1.1
2019-04-05T05:30:03.892Z,1.1
2019-04-05T05:31:03.270Z,1.1
2019-04-05T05:32:03.696Z,1.1
2019-04-05T05:33:03.784Z,1.1
2019-04-05T05:34:02.934Z,1.1
2019-04-05T05:35:03.330Z,2.5
2019-04-05T05:36:03.669Z,3.6
2019-04-05T05:37:03.549Z,3.6
2019-04-05T05:38:03.948Z,2.5
2019-04-05T05:39:03.048Z,3.6
2019-04-05T05:40:03.683Z,2.5
2019-04-05T05:41:03.414Z,2.5
2019-04-05T05:42:03.584Z,2.5
2019-04-05T05:43:03.695Z,2.5
2019-04-05T05:44:03.671Z,2.5
2019-04-05T05:45:04.137Z,3.6
2019-04-05T05:46:03.689Z,2.5
2019-04-05T05:47:03.634Z,2.5
2019-04-05T05:48:03.686Z,2.5
2019-04-05T05:49:03.196Z,1.1
2019-04-05T05:50:03.886Z,2.5
2019-04-05T05:51:03.409Z,3.6
2019-04-05T05:52:03.532Z,3.6
2019-04-05T05:53:03.555Z,2.5
2019-04-05T05:54:03.656Z,2.5
2019-04-05T05:55:03.874Z,2.5
2019-04-05T05:56:03.576Z,2.5
2019-04-05T05:57:03.631Z,2.5
2019-04-05T05:58:02.786Z,2.5
2019-04-05T05:59:03.577Z,3.6
2019-04-05T06:00:03.561Z,3.6
2019-04-05T06:01:03.658Z,3.6
2019-04-05T06:02:03.207Z,3.6
2019-04-05T06:03:12.185Z,3.6
2019-04-05T06:04:03.581Z,3.6
2019-04-05T06:05:03.824Z,3.6
2019-04-05T06:06:05.230Z,3.6
2019-04-05T06:07:03.027Z,3.6
2019-04-05T06:08:03.661Z,3.6
2019-04-05T06:09:02.818Z,3.6
2019-04-05T06:10:03.891Z,3.6
2019-04-05T06:11:03.483Z,3.6
2019-04-05T06:12:03.511Z,3.6
2019-04-05T06:13:08.094Z,5
2019-04-05T06:14:03.291Z,2.5
2019-04-05T06:15:03.269Z,1.1
2019-04-05T06:16:03.278Z,1.1
2019-04-05T06:17:03.559Z,2.5
2019-04-05T06:18:05.572Z,5
2019-04-05T06:19:03.293Z,5
2019-04-05T06:20:03.601Z,3.6
2019-04-05T06:21:03.920Z,3.6
2019-04-05T06:22:03.276Z,2.5
2019-04-05T06:23:03.280Z,3.6
2019-04-05T06:24:05.715Z,3.6
2019-04-05T06:25:03.161Z,5
2019-04-05T06:26:03.124Z,5
2019-04-05T06:27:02.782Z,3.6
2019-04-05T06:28:02.896Z,5
2019-04-05T06:29:03.051Z,5
2019-04-05T06:30:03.115Z,3.6
2019-04-05T06:31:02.962Z,6.1
2019-04-05T06:32:03.824Z,5
2019-04-05T06:33:03.117Z,5
2019-04-05T06:34:03.397Z,3.6
2019-04-05T06:35:03.645Z,1.1
2019-04-05T06:36:03.739Z,2.5
2019-04-05T06:37:03.544Z,3.6
2019-04-05T06:38:03.190Z,3.6
2019-04-05T06:39:03.118Z,3.6
2019-04-05T06:40:03.254Z,3.6
2019-04-05T06:41:03.488Z,5
2019-04-05T06:42:03.473Z,2.5
2019-04-05T06:43:07.350Z,3.6
2019-04-05T06:44:03.153Z,3.6
2019-04-05T06:45:03.652Z,5
2019-04-05T06:46:04.728Z,5
2019-04-05T06:47:03.750Z,5
2019-04-05T06:48:03.100Z,6.1
2019-04-05T06:49:03.173Z,5
2019-04-05T06:50:03.376Z,5
2019-04-05T06:51:03.227Z,5
2019-04-05T06:52:03.193Z,6.1
2019-04-05T06:53:02.999Z,6.1
2019-04-05T06:54:03.785Z,6.1
2019-04-05T06:55:03.156Z,6.1
2019-04-05T06:56:03.004Z,6.1
2019-04-05T06:57:02.827Z,5
2019-04-05T06:58:02.941Z,6.1
2019-04-05T06:59:03.083Z,5
2019-04-05T07:00:03.315Z,5
2019-04-05T07:01:02.899Z,5
2019-04-05T07:02:03.814Z,5
2019-04-05T07:03:03.612Z,5
2019-04-05T07:04:03.674Z,5
2019-04-05T07:05:03.843Z,5
2019-04-05T07:06:03.375Z,5
2019-04-05T07:07:03.404Z,2.5
2019-04-05T07:08:03.585Z,3.6
2019-04-05T07:09:03.822Z,2.5
2019-04-05T07:10:03.519Z,3.6
2019-04-05T07:11:03.454Z,5
2019-04-05T07:12:02.702Z,5
2019-04-05T07:13:03.977Z,5
2019-04-05T07:14:03.362Z,6.1
2019-04-05T07:15:03.506Z,3.6
2019-04-05T07:16:03.111Z,5
2019-04-05T07:17:03.046Z,5
2019-04-05T07:18:03.404Z,3.6
2019-04-05T07:19:03.468Z,3.6
2019-04-05T07:20:03.174Z,3.6
2019-04-05T07:21:03.274Z,5
2019-04-05T07:22:03.199Z,3.6
2019-04-05T07:23:03.148Z,2.5
2019-04-05T07:24:03.037Z,3.6
2019-04-05T07:25:03.589Z,5
2019-04-05T07:26:03.051Z,5
2019-04-05T07:27:03.868Z,5
2019-04-05T07:28:02.887Z,5
2019-04-05T07:29:02.903Z,5
2019-04-05T07:30:03.262Z,3.6
2019-04-05T07:31:03.110Z,3.6
2019-04-05T07:32:03.073Z,3.6
2019-04-05T07:33:03.696Z,5
2019-04-05T07:34:03.717Z,6.1
2019-04-05T07:35:02.840Z,3.6
2019-04-05T07:36:04.056Z,5
2019-04-05T07:37:03.607Z,3.6
2019-04-05T07:38:03.348Z,5
2019-04-05T07:39:03.634Z,3.6
2019-04-05T07:40:03.757Z,3.6
2019-04-05T07:41:03.720Z,3.6
2019-04-05T07:42:03.565Z,3.6
2019-04-05T07:43:03.736Z,2.5
2019-04-05T07:44:03.474Z,1.1
2019-04-05T07:45:02.193Z,1.1
2019-04-05T07:46:03.839Z,3.6
2019-04-05T07:47:03.702Z,5
2019-04-05T07:48:03.567Z,3.6
2019-04-05T07:49:03.555Z,2.5
2019-04-05T07:50:03.499Z,2.5
2019-04-05T07:51:03.114Z,3.6
2019-04-05T07:52:03.351Z,1.1
2019-04-05T07:53:03.318Z,3.6
2019-04-05T07:54:03.545Z,3.6
2019-04-05T07:55:03.330Z,3.6
2019-04-05T07:56:03.893Z,3.6
2019-04-05T07:57:03.739Z,1.1
2019-04-05T07:58:03.675Z,2.5
2019-04-05T07:59:03.594Z,2.5
2019-04-05T08:00:03.859Z,1.1
2019-04-05T08:01:03.607Z,0
2019-04-05T08:02:03.754Z,0
2019-04-05T08:03:03.684Z,0
2019-04-05T08:04:02.933Z,0
2019-04-05T08:05:06.830Z,0
2019-04-05T08:06:03.550Z,0
2019-04-05T08:07:03.690Z,0
2019-04-05T08:08:03.364Z,0
2019-04-05T08:09:03.299Z,0
2019-04-05T08:10:03.728Z,3.6
2019-04-05T08:11:03.971Z,2.5
2019-04-05T08:12:03.419Z,5
2019-04-05T08:13:03.426Z,3.6
2019-04-05T08:14:03.172Z,3.6
2019-04-05T08:15:03.837Z,3.6
2019-04-05T08:16:03.417Z,3.6
2019-04-05T08:17:02.954Z,3.6
2019-04-05T08:18:03.598Z,3.6
2019-04-05T08:19:03.055Z,2.5
2019-04-05T08:20:03.387Z,3.6
2019-04-05T08:21:03.075Z,2.5
2019-04-05T08:22:03.040Z,2.5
2019-04-05T08:23:02.931Z,3.6
2019-04-05T08:24:03.086Z,3.6
2019-04-05T08:25:03.135Z,3.6
2019-04-05T08:26:03.005Z,3.6
2019-04-05T08:27:03.235Z,2.5
2019-04-05T08:28:02.816Z,1.1
2019-04-05T08:29:03.607Z,1.1
2019-04-05T08:30:03.929Z,1.1
2019-04-05T08:31:03.054Z,0
2019-04-05T08:32:15.456Z,1.1
2019-04-05T08:33:03.651Z,3.6
2019-04-05T08:34:03.702Z,5
2019-04-05T08:35:03.109Z,3.6
2019-04-05T08:36:03.022Z,2.5
2019-04-05T08:37:03.494Z,3.6
2019-04-05T08:38:03.782Z,3.6
2019-04-05T08:39:03.693Z,1.1
2019-04-05T08:40:03.761Z,2.5
2019-04-05T08:41:03.755Z,2.5
2019-04-05T08:42:03.585Z,2.5
2019-04-05T08:43:03.669Z,1.1
2019-04-05T08:44:02.933Z,2.5
2019-04-05T08:45:03.538Z,3.6
2019-04-05T08:46:03.634Z,3.6
2019-04-05T08:47:03.330Z,2.5
2019-04-05T08:48:03.505Z,1.1
2019-04-05T08:49:12.276Z,2.5
2019-04-05T08:50:03.120Z,2.5
2019-04-05T08:51:03.298Z,3.6
2019-04-05T08:52:03.161Z,2.5
2019-04-05T08:53:03.042Z,2.5
2019-04-05T08:54:03.024Z,2.5
2019-04-05T08:55:03.371Z,5
2019-04-05T08:56:03.681Z,3.6
2019-04-05T08:57:03.278Z,3.6
2019-04-05T08:58:03.272Z,3.6
2019-04-05T08:59:03.635Z,1.1
2019-04-05T09:00:03.316Z,1.1
2019-04-05T09:01:03.303Z,2.5
2019-04-05T09:02:03.394Z,2.5
2019-04-05T09:03:03.177Z,2.5
2019-04-05T09:04:02.866Z,2.5
2019-04-05T09:05:02.814Z,1.1
2019-04-05T09:06:03.309Z,1.1
2019-04-05T09:07:03.072Z,1.1
2019-04-05T09:08:03.541Z,2.5
2019-04-05T09:09:03.085Z,2.5
2019-04-05T09:10:03.450Z,2.5
2019-04-05T09:11:03.057Z,1.1
2019-04-05T09:12:03.049Z,2.5
2019-04-05T09:13:02.848Z,2.5
2019-04-05T09:14:03.099Z,2.5
2019-04-05T09:15:03.171Z,0
2019-04-05T09:16:03.623Z,0
2019-04-05T09:17:03.145Z,1.1
2019-04-05T09:18:03.604Z,1.1
2019-04-05T09:19:03.475Z,1.1
2019-04-05T09:20:03.744Z,1.1
2019-04-05T09:21:03.768Z,2.5
2019-04-05T09:22:03.928Z,1.1
2019-04-05T09:23:03.760Z,1.1
2019-04-05T09:24:03.747Z,0
2019-04-05T09:25:03.785Z,0
2019-04-05T09:26:03.798Z,0
2019-04-05T09:27:03.834Z,0
2019-04-05T09:28:03.319Z,0
2019-04-05T09:29:03.572Z,0
2019-04-05T09:30:03.992Z,0
2019-04-05T09:31:03.247Z,0
2019-04-05T09:32:03.552Z,0
2019-04-05T09:33:03.298Z,0
2019-04-05T09:34:03.205Z,0
2019-04-05T09:35:03.347Z,0
2019-04-05T09:36:03.767Z,0
2019-04-05T09:37:03.611Z,0
2019-04-05T09:38:03.422Z,0
2019-04-05T09:39:03.602Z,0
2019-04-05T09:40:02.897Z,0
2019-04-05T09:41:03.037Z,0
2019-04-05T09:42:03.777Z,0
2019-04-05T09:43:03.686Z,0
2019-04-05T09:44:03.430Z,0
2019-04-05T09:45:03.559Z,0
2019-04-05T09:46:03.496Z,0
2019-04-05T09:47:03.304Z,0
2019-04-05T09:48:03.296Z,0
2019-04-05T09:49:03.322Z,0
2019-04-05T09:50:03.689Z,0
2019-04-05T09:51:03.574Z,1.1
2019-04-05T09:52:03.245Z,1.1
2019-04-05T09:53:03.736Z,0
2019-04-05T09:54:03.612Z,0
2019-04-05T09:55:03.432Z,0
2019-04-05T09:56:02.489Z,0
2019-04-05T09:57:03.436Z,0
2019-04-05T09:58:03.473Z,1.1
2019-04-05T09:59:03.412Z,1.1
2019-04-05T10:00:03.511Z,1.1
2019-04-05T10:01:03.458Z,0
2019-04-05T10:02:03.595Z,0
2019-04-05T10:03:02.310Z,0
2019-04-05T10:04:03.320Z,0
2019-04-05T10:05:03.896Z,0
2019-04-05T10:06:03.819Z,0
2019-04-05T10:07:03.541Z,0
2019-04-05T10:08:03.736Z,0
2019-04-05T10:09:03.500Z,0
2019-04-05T10:10:03.843Z,0
2019-04-05T10:11:03.650Z,1.1
2019-04-05T10:12:03.285Z,2.5
2019-04-05T10:13:03.181Z,2.5
2019-04-05T10:14:03.187Z,3.6
2019-04-05T10:15:03.480Z,2.5
2019-04-05T10:16:03.171Z,1.1
2019-04-05T10:17:03.462Z,1.1
2019-04-05T10:18:03.005Z,1.1
2019-04-05T10:19:03.180Z,2.5
2019-04-05T10:20:03.194Z,2.5
2019-04-05T10:21:03.125Z,2.5
2019-04-05T10:22:02.944Z,2.5
2019-04-05T10:23:03.096Z,3.6
2019-04-05T10:24:03.350Z,2.5
2019-04-05T10:25:03.397Z,2.5
2019-04-05T10:26:03.124Z,2.5
2019-04-05T10:27:02.989Z,0
2019-04-05T10:28:03.121Z,1.1
2019-04-05T10:29:03.189Z,1.1
2019-04-05T10:30:03.243Z,2.5
2019-04-05T10:31:02.909Z,2.5
2019-04-05T10:32:03.125Z,0
2019-04-05T10:33:03.216Z,0
2019-04-05T10:34:03.793Z,0
2019-04-05T10:35:03.133Z,1.1
2019-04-05T10:36:03.009Z,1.1
2019-04-05T10:37:03.644Z,1.1
2019-04-05T10:38:03.706Z,3.6
2019-04-05T10:39:03.141Z,2.5
2019-04-05T10:40:03.806Z,1.1
2019-04-05T10:41:03.210Z,1.1
2019-04-05T10:42:04.401Z,1.1
2019-04-05T10:43:03.131Z,0
2019-04-05T10:44:03.000Z,0
2019-04-05T10:45:03.305Z,0
2019-04-05T10:46:03.136Z,0
2019-04-05T10:47:03.375Z,0
2019-04-05T10:48:03.197Z,0
2019-04-05T10:49:02.984Z,0
2019-04-05T10:50:04.174Z,0
2019-04-05T10:51:03.904Z,1.1
2019-04-05T10:52:02.906Z,1.1
2019-04-05T10:53:03.862Z,0
2019-04-05T10:54:04.053Z,0
2019-04-05T10:55:03.568Z,0
2019-04-05T10:56:03.106Z,1.1
2019-04-05T10:57:03.770Z,0
2019-04-05T10:58:03.048Z,0
2019-04-05T10:59:03.692Z,1.1
2019-04-05T11:00:03.169Z,1.1
2019-04-05T11:01:02.938Z,1.1
2019-04-05T11:02:02.973Z,0
2019-04-05T11:03:02.865Z,1.1
2019-04-05T11:04:03.678Z,0
2019-04-05T11:05:03.234Z,2.5
2019-04-05T11:06:03.813Z,1.1
2019-04-05T11:07:03.997Z,0
2019-04-05T11:08:03.747Z,0
2019-04-05T11:09:03.664Z,0
2019-04-05T11:10:03.100Z,0
2019-04-05T11:11:03.426Z,0
2019-04-05T11:12:03.227Z,0
2019-04-05T11:13:03.110Z,0
2019-04-05T11:14:14.593Z,0
2019-04-05T11:15:03.870Z,0
2019-04-05T11:16:05.027Z,0
2019-04-05T11:17:05.459Z,1.1
2019-04-05T11:18:05.086Z,1.1
2019-04-05T11:19:03.786Z,1.1
2019-04-05T11:20:22.872Z,2.5
2019-04-05T11:21:03.912Z,1.1
2019-04-05T11:22:02.818Z,0
2019-04-05T11:23:03.289Z,0
2019-04-05T11:24:03.197Z,0
2019-04-05T11:25:04.049Z,0
2019-04-05T11:26:03.610Z,0
2019-04-05T11:27:02.811Z,0
2019-04-05T11:28:02.956Z,0
2019-04-05T11:29:03.081Z,0
2019-04-05T11:30:03.683Z,0
2019-04-05T11:31:03.053Z,0
2019-04-05T11:32:02.959Z,0
2019-04-05T11:33:03.752Z,0
2019-04-05T11:34:03.339Z,0
2019-04-05T11:35:03.636Z,0
2019-04-05T11:36:02.837Z,0
2019-04-05T11:37:03.367Z,0
2019-04-05T11:38:03.789Z,0
2019-04-05T11:39:05.828Z,2.5
2019-04-05T11:40:03.908Z,1.1
2019-04-05T11:41:03.626Z,1.1
2019-04-05T11:42:03.709Z,0
2019-04-05T11:43:03.548Z,1.1
2019-04-05T11:44:03.508Z,2.5
2019-04-05T11:45:03.778Z,1.1
2019-04-05T11:46:03.369Z,5
2019-04-05T11:47:03.465Z,3.6
2019-04-05T11:48:03.632Z,1.1
2019-04-05T11:49:04.764Z,1.1
2019-04-05T11:50:03.442Z,0
2019-04-05T11:51:03.650Z,0
2019-04-05T11:52:03.517Z,0
2019-04-05T11:53:03.623Z,0
2019-04-05T11:54:03.423Z,0
2019-04-05T11:55:05.071Z,0
2019-04-05T11:56:20.754Z,0
2019-04-05T11:57:03.269Z,0
2019-04-05T11:58:03.279Z,0
2019-04-05T11:59:02.953Z,0
2019-04-05T12:00:03.292Z,2.5
2019-04-05T12:01:03.125Z,0
2019-04-05T12:02:02.926Z,0
2019-04-05T12:03:03.730Z,0
2019-04-05T12:04:03.443Z,0
2019-04-05T12:05:03.148Z,0
2019-04-05T12:06:03.106Z,0
2019-04-05T12:07:03.106Z,0
2019-04-05T12:08:02.926Z,0
2019-04-05T12:09:03.527Z,1.1
2019-04-05T12:10:03.731Z,1.1
2019-04-05T12:11:03.235Z,0
2019-04-05T12:12:03.703Z,1.1
2019-04-05T12:13:02.842Z,0
2019-04-05T12:14:03.188Z,2.5
2019-04-05T12:15:07.206Z,0
2019-04-05T12:16:10.918Z,0
2019-04-05T12:17:09.757Z,0
2019-04-05T12:18:05.681Z,1.1
2019-04-05T12:19:05.775Z,0
2019-04-05T12:20:03.858Z,0
2019-04-05T12:21:06.251Z,1.1
2019-04-05T12:22:09.653Z,1.1
2019-04-05T12:23:02.922Z,0
2019-04-05T12:24:03.589Z,5
2019-04-05T12:25:03.974Z,5
2019-04-05T12:26:05.363Z,2.5
2019-04-05T12:27:06.007Z,0
2019-04-05T12:28:11.192Z,3.6
2019-04-05T12:29:02.889Z,3.6
2019-04-05T12:30:03.798Z,2.5
2019-04-05T12:31:03.808Z,1.1
2019-04-05T12:32:02.952Z,0
2019-04-05T12:33:20.634Z,0
2019-04-05T12:34:03.903Z,0
2019-04-05T12:35:03.402Z,1.1
2019-04-05T12:36:02.981Z,3.6
2019-04-05T12:37:02.959Z,5
2019-04-05T12:38:07.509Z,5
2019-04-05T12:39:08.753Z,6.1
2019-04-05T12:40:11.397Z,5
2019-04-05T12:41:02.991Z,3.6
2019-04-05T12:42:03.053Z,1.1
2019-04-05T12:43:03.477Z,0
2019-04-05T12:44:03.655Z,0
2019-04-05T12:45:03.596Z,0
2019-04-05T12:46:03.547Z,0
2019-04-05T12:47:03.812Z,0
2019-04-05T12:48:03.806Z,0
2019-04-05T12:49:03.774Z,0
2019-04-05T12:50:03.108Z,0
2019-04-05T12:51:06.229Z,0
2019-04-05T12:52:03.987Z,0
2019-04-05T12:53:02.957Z,0
2019-04-05T12:54:03.673Z,2.5
2019-04-05T12:55:03.887Z,1.1
2019-04-05T12:56:03.745Z,1.1
2019-04-05T12:57:03.474Z,1.1
2019-04-05T12:58:03.142Z,0
2019-04-05T12:59:03.632Z,0
2019-04-05T13:00:03.415Z,0
2019-04-05T13:01:03.648Z,0
2019-04-05T13:02:03.218Z,0
2019-04-05T13:03:03.091Z,0
2019-04-05T13:04:03.635Z,1.1
2019-04-05T13:05:03.307Z,0
2019-04-05T13:06:03.546Z,0
2019-04-05T13:07:03.476Z,1.1
2019-04-05T13:08:03.945Z,0
2019-04-05T13:09:06.758Z,3.6
2019-04-05T13:10:03.524Z,2.5
2019-04-05T13:11:03.423Z,2.5
2019-04-05T13:12:03.381Z,1.1
2019-04-05T13:13:03.438Z,0
2019-04-05T13:14:03.376Z,0
2019-04-05T13:15:17.656Z,1.1
2019-04-05T13:16:03.934Z,0
2019-04-05T13:17:03.167Z,0
2019-04-05T13:18:03.287Z,1.1
2019-04-05T13:19:03.317Z,2.5
2019-04-05T13:20:03.975Z,1.1
2019-04-05T13:21:15.934Z,1.1
2019-04-05T13:22:03.898Z,1.1
2019-04-05T13:23:07.046Z,1.1
2019-04-05T13:24:10.361Z,0
2019-04-05T13:25:11.547Z,0
2019-04-05T13:26:03.470Z,0
2019-04-05T13:27:03.536Z,1.1
2019-04-05T13:28:19.769Z,0
2019-04-05T13:29:03.417Z,2.5
2019-04-05T13:30:03.184Z,2.5
2019-04-05T13:31:03.277Z,2.5
2019-04-05T13:32:03.276Z,2.5
2019-04-05T13:33:03.474Z,2.5
2019-04-05T13:34:03.666Z,2.5
2019-04-05T13:35:03.858Z,1.1
2019-04-05T13:36:03.950Z,0
2019-04-05T13:37:02.898Z,1.1
2019-04-05T13:38:03.725Z,2.5
2019-04-05T13:39:04.043Z,0
2019-04-05T13:40:07.112Z,0
2019-04-05T13:41:03.177Z,0
2019-04-05T13:42:02.895Z,0
2019-04-05T13:43:03.686Z,0
2019-04-05T13:44:02.723Z,1.1
2019-04-05T13:45:03.575Z,0
2019-04-05T13:46:03.055Z,0
2019-04-05T13:47:03.268Z,0
2019-04-05T13:48:03.103Z,0
2019-04-05T13:49:02.846Z,0
2019-04-05T13:50:04.010Z,2.5
2019-04-05T13:51:02.804Z,1.1
2019-04-05T13:52:02.897Z,1.1
2019-04-05T13:53:02.992Z,1.1
2019-04-05T13:54:03.114Z,2.5
2019-04-05T13:55:03.369Z,0
2019-04-05T13:56:03.353Z,0
2019-04-05T13:57:02.934Z,1.1
2019-04-05T13:58:03.287Z,1.1
2019-04-05T13:59:02.809Z,1.1
2019-04-05T14:00:03.097Z,0
2019-04-05T14:01:02.809Z,0
2019-04-05T14:02:07.120Z,0
2019-04-05T14:03:03.603Z,0
2019-04-05T14:04:02.899Z,0
2019-04-05T14:05:03.965Z,0